sensor_id;sensor_type;location;lat;lon;timestamp;temperature;humidity
7844;DHT22;3967;48.702;9.326;2023-05-07T00:01:29;17.80;88.50
7844;DHT22;3967;48.702;9.326;2023-05-07T00:03:56;17.60;89.00
7844;DHT22;3967;48.702;9.326;2023-05-07T00:06:23;17.50;89.50
7844;DHT22;3967;48.702;9.326;2023-05-07T00:08:50;17.40;89.60
7844;DHT22;3967;48.702;9.326;2023-05-07T00:11:17;17.30;89.60
7844;DHT22;3967;48.702;9.326;2023-05-07T00:13:44;17.20;90.10
7844;DHT22;3967;48.702;9.326;2023-05-07T00:16:10;17.20;90.20
7844;DHT22;3967;48.702;9.326;2023-05-07T00:18:37;17.20;90.30
7844;DHT22;3967;48.702;9.326;2023-05-07T00:21:04;17.20;90.40
7844;DHT22;3967;48.702;9.326;2023-05-07T00:23:30;17.20;90.50
7844;DHT22;3967;48.702;9.326;2023-05-07T00:25:57;17.20;90.60
7844;DHT22;3967;48.702;9.326;2023-05-07T00:28:24;17.20;90.80
7844;DHT22;3967;48.702;9.326;2023-05-07T00:30:50;17.30;90.70
7844;DHT22;3967;48.702;9.326;2023-05-07T00:33:17;17.30;90.60
7844;DHT22;3967;48.702;9.326;2023-05-07T00:35:44;17.20;90.50
7844;DHT22;3967;48.702;9.326;2023-05-07T00:38:10;17.20;90.80
7844;DHT22;3967;48.702;9.326;2023-05-07T00:40:37;17.20;90.80
7844;DHT22;3967;48.702;9.326;2023-05-07T00:43:04;17.10;90.70
7844;DHT22;3967;48.702;9.326;2023-05-07T00:45:31;17.10;90.80
7844;DHT22;3967;48.702;9.326;2023-05-07T00:48:01;17.10;91.00
7844;DHT22;3967;48.702;9.326;2023-05-07T00:50:29;17.00;91.10
7844;DHT22;3967;48.702;9.326;2023-05-07T00:52:56;17.00;91.10
7844;DHT22;3967;48.702;9.326;2023-05-07T00:55:23;17.00;91.60
7844;DHT22;3967;48.702;9.326;2023-05-07T00:57:50;17.00;91.80
7844;DHT22;3967;48.702;9.326;2023-05-07T01:00:18;16.90;91.80
7844;DHT22;3967;48.702;9.326;2023-05-07T01:02:45;16.90;91.90
7844;DHT22;3967;48.702;9.326;2023-05-07T01:05:16;17.00;92.10
7844;DHT22;3967;48.702;9.326;2023-05-07T01:07:44;16.90;92.10
7844;DHT22;3967;48.702;9.326;2023-05-07T01:10:11;16.70;92.00
7844;DHT22;3967;48.702;9.326;2023-05-07T01:12:40;16.80;92.20
7844;DHT22;3967;48.702;9.326;2023-05-07T01:15:08;16.80;92.40
7844;DHT22;3967;48.702;9.326;2023-05-07T01:17:40;16.70;92.70
7844;DHT22;3967;48.702;9.326;2023-05-07T01:20:08;16.70;92.60
7844;DHT22;3967;48.702;9.326;2023-05-07T01:22:40;16.80;92.70
7844;DHT22;3967;48.702;9.326;2023-05-07T01:25:07;16.70;92.90
7844;DHT22;3967;48.702;9.326;2023-05-07T01:27:35;16.70;92.80
7844;DHT22;3967;48.702;9.326;2023-05-07T01:30:06;16.70;93.10
7844;DHT22;3967;48.702;9.326;2023-05-07T01:32:51;16.60;93.10
7844;DHT22;3967;48.702;9.326;2023-05-07T01:35:20;16.60;93.50
7844;DHT22;3967;48.702;9.326;2023-05-07T01:37:49;16.60;93.50
7844;DHT22;3967;48.702;9.326;2023-05-07T01:40:16;16.50;93.50
7844;DHT22;3967;48.702;9.326;2023-05-07T01:42:43;16.30;93.80
7844;DHT22;3967;48.702;9.326;2023-05-07T01:45:10;16.30;94.00
7844;DHT22;3967;48.702;9.326;2023-05-07T01:47:37;16.30;94.00
7844;DHT22;3967;48.702;9.326;2023-05-07T01:50:06;16.30;94.00
7844;DHT22;3967;48.702;9.326;2023-05-07T01:52:37;16.40;94.20
7844;DHT22;3967;48.702;9.326;2023-05-07T01:55:05;16.30;94.40
7844;DHT22;3967;48.702;9.326;2023-05-07T01:57:32;16.30;94.50
7844;DHT22;3967;48.702;9.326;2023-05-07T01:59:59;16.30;94.40
7844;DHT22;3967;48.702;9.326;2023-05-07T02:02:26;16.30;94.40
7844;DHT22;3967;48.702;9.326;2023-05-07T02:04:53;16.30;94.40
7844;DHT22;3967;48.702;9.326;2023-05-07T02:07:19;16.30;94.40
7844;DHT22;3967;48.702;9.326;2023-05-07T02:09:46;16.30;94.40
7844;DHT22;3967;48.702;9.326;2023-05-07T02:12:16;16.20;94.50
7844;DHT22;3967;48.702;9.326;2023-05-07T02:14:42;16.20;94.60
7844;DHT22;3967;48.702;9.326;2023-05-07T02:17:09;16.10;94.90
7844;DHT22;3967;48.702;9.326;2023-05-07T02:19:36;16.10;94.90
7844;DHT22;3967;48.702;9.326;2023-05-07T02:22:02;16.00;95.00
7844;DHT22;3967;48.702;9.326;2023-05-07T02:24:29;16.00;94.90
7844;DHT22;3967;48.702;9.326;2023-05-07T02:26:56;15.90;95.10
7844;DHT22;3967;48.702;9.326;2023-05-07T02:29:26;16.00;95.30
7844;DHT22;3967;48.702;9.326;2023-05-07T02:31:52;16.00;95.30
7844;DHT22;3967;48.702;9.326;2023-05-07T02:34:20;16.00;95.30
7844;DHT22;3967;48.702;9.326;2023-05-07T02:36:46;16.00;95.20
7844;DHT22;3967;48.702;9.326;2023-05-07T02:39:13;15.90;95.30
7844;DHT22;3967;48.702;9.326;2023-05-07T02:41:40;15.80;95.50
7844;DHT22;3967;48.702;9.326;2023-05-07T02:44:07;15.70;95.70
7844;DHT22;3967;48.702;9.326;2023-05-07T02:46:34;15.50;95.80
7844;DHT22;3967;48.702;9.326;2023-05-07T02:49:00;15.30;96.20
7844;DHT22;3967;48.702;9.326;2023-05-07T02:51:27;15.30;96.90
7844;DHT22;3967;48.702;9.326;2023-05-07T02:53:54;15.50;96.70
7844;DHT22;3967;48.702;9.326;2023-05-07T02:56:21;15.50;96.80
7844;DHT22;3967;48.702;9.326;2023-05-07T02:58:48;15.50;96.40
7844;DHT22;3967;48.702;9.326;2023-05-07T03:01:14;15.50;96.60
7844;DHT22;3967;48.702;9.326;2023-05-07T03:03:41;15.40;96.70
7844;DHT22;3967;48.702;9.326;2023-05-07T03:06:08;15.50;96.60
7844;DHT22;3967;48.702;9.326;2023-05-07T03:08:35;15.50;96.50
7844;DHT22;3967;48.702;9.326;2023-05-07T03:11:02;15.40;96.50
7844;DHT22;3967;48.702;9.326;2023-05-07T03:13:29;15.40;96.50
7844;DHT22;3967;48.702;9.326;2023-05-07T03:15:56;15.40;96.50
7844;DHT22;3967;48.702;9.326;2023-05-07T03:18:23;15.20;96.50
7844;DHT22;3967;48.702;9.326;2023-05-07T03:20:50;15.10;97.30
7844;DHT22;3967;48.702;9.326;2023-05-07T03:23:19;15.20;97.30
7844;DHT22;3967;48.702;9.326;2023-05-07T03:25:48;15.20;97.40
7844;DHT22;3967;48.702;9.326;2023-05-07T03:28:15;15.20;97.20
7844;DHT22;3967;48.702;9.326;2023-05-07T03:30:42;15.20;97.20
7844;DHT22;3967;48.702;9.326;2023-05-07T03:33:09;15.20;97.30
7844;DHT22;3967;48.702;9.326;2023-05-07T03:35:35;15.10;97.20
7844;DHT22;3967;48.702;9.326;2023-05-07T03:38:02;15.10;97.30
7844;DHT22;3967;48.702;9.326;2023-05-07T03:40:29;15.10;97.20
7844;DHT22;3967;48.702;9.326;2023-05-07T03:42:56;15.10;97.20
7844;DHT22;3967;48.702;9.326;2023-05-07T03:45:22;15.20;97.10
7844;DHT22;3967;48.702;9.326;2023-05-07T03:47:49;15.10;97.00
7844;DHT22;3967;48.702;9.326;2023-05-07T03:50:16;15.10;97.10
7844;DHT22;3967;48.702;9.326;2023-05-07T03:52:42;15.10;97.30
7844;DHT22;3967;48.702;9.326;2023-05-07T03:55:09;15.10;97.50
7844;DHT22;3967;48.702;9.326;2023-05-07T03:57:36;15.10;97.40
7844;DHT22;3967;48.702;9.326;2023-05-07T04:00:03;15.00;97.60
7844;DHT22;3967;48.702;9.326;2023-05-07T04:02:31;15.00;97.70
7844;DHT22;3967;48.702;9.326;2023-05-07T04:04:57;14.90;97.80
7844;DHT22;3967;48.702;9.326;2023-05-07T04:07:24;14.90;97.80
7844;DHT22;3967;48.702;9.326;2023-05-07T04:09:51;14.90;97.80
7844;DHT22;3967;48.702;9.326;2023-05-07T04:12:18;14.90;97.70
7844;DHT22;3967;48.702;9.326;2023-05-07T04:14:45;14.80;97.80
7844;DHT22;3967;48.702;9.326;2023-05-07T04:17:11;14.80;97.80
7844;DHT22;3967;48.702;9.326;2023-05-07T04:19:38;14.70;98.10
7844;DHT22;3967;48.702;9.326;2023-05-07T04:22:05;14.70;98.20
7844;DHT22;3967;48.702;9.326;2023-05-07T04:24:32;14.60;98.50
7844;DHT22;3967;48.702;9.326;2023-05-07T04:26:59;14.70;98.40
7844;DHT22;3967;48.702;9.326;2023-05-07T04:29:26;14.70;98.20
7844;DHT22;3967;48.702;9.326;2023-05-07T04:31:53;14.80;98.20
7844;DHT22;3967;48.702;9.326;2023-05-07T04:34:22;14.80;98.10
7844;DHT22;3967;48.702;9.326;2023-05-07T04:36:48;14.80;98.50
7844;DHT22;3967;48.702;9.326;2023-05-07T04:39:15;14.80;98.60
7844;DHT22;3967;48.702;9.326;2023-05-07T04:41:42;14.80;98.60
7844;DHT22;3967;48.702;9.326;2023-05-07T04:44:09;14.70;98.80
7844;DHT22;3967;48.702;9.326;2023-05-07T04:46:35;14.60;98.80
7844;DHT22;3967;48.702;9.326;2023-05-07T04:49:03;14.60;98.80
7844;DHT22;3967;48.702;9.326;2023-05-07T04:51:30;14.50;99.00
7844;DHT22;3967;48.702;9.326;2023-05-07T04:53:59;14.50;99.40
7844;DHT22;3967;48.702;9.326;2023-05-07T04:56:28;14.40;99.60
7844;DHT22;3967;48.702;9.326;2023-05-07T04:58:55;14.40;99.90
7844;DHT22;3967;48.702;9.326;2023-05-07T05:01:22;14.50;99.90
7844;DHT22;3967;48.702;9.326;2023-05-07T05:03:49;14.60;99.80
7844;DHT22;3967;48.702;9.326;2023-05-07T05:06:15;14.60;99.90
7844;DHT22;3967;48.702;9.326;2023-05-07T05:08:42;14.70;99.80
7844;DHT22;3967;48.702;9.326;2023-05-07T05:11:09;14.70;99.90
7844;DHT22;3967;48.702;9.326;2023-05-07T05:13:36;14.50;99.50
7844;DHT22;3967;48.702;9.326;2023-05-07T05:16:02;14.60;99.80
7844;DHT22;3967;48.702;9.326;2023-05-07T05:18:29;14.60;99.90
7844;DHT22;3967;48.702;9.326;2023-05-07T05:20:56;14.70;99.70
7844;DHT22;3967;48.702;9.326;2023-05-07T05:23:23;14.80;99.80
7844;DHT22;3967;48.702;9.326;2023-05-07T05:25:49;14.80;99.80
7844;DHT22;3967;48.702;9.326;2023-05-07T05:28:16;14.90;99.60
7844;DHT22;3967;48.702;9.326;2023-05-07T05:30:43;14.90;99.50
7844;DHT22;3967;48.702;9.326;2023-05-07T05:33:09;14.90;99.40
7844;DHT22;3967;48.702;9.326;2023-05-07T05:35:36;14.90;98.90
7844;DHT22;3967;48.702;9.326;2023-05-07T05:38:03;14.80;99.90
7844;DHT22;3967;48.702;9.326;2023-05-07T05:40:30;14.80;99.90
7844;DHT22;3967;48.702;9.326;2023-05-07T05:42:56;14.80;99.90
7844;DHT22;3967;48.702;9.326;2023-05-07T05:45:23;14.80;99.90
7844;DHT22;3967;48.702;9.326;2023-05-07T05:47:50;15.00;99.90
7844;DHT22;3967;48.702;9.326;2023-05-07T05:50:17;15.00;99.90
7844;DHT22;3967;48.702;9.326;2023-05-07T05:52:44;15.10;99.10
7844;DHT22;3967;48.702;9.326;2023-05-07T05:55:10;15.20;99.20
7844;DHT22;3967;48.702;9.326;2023-05-07T05:57:37;15.40;99.00
7844;DHT22;3967;48.702;9.326;2023-05-07T06:00:04;15.50;98.70
7844;DHT22;3967;48.702;9.326;2023-05-07T06:02:31;15.70;97.80
7844;DHT22;3967;48.702;9.326;2023-05-07T06:04:58;15.70;97.50
7844;DHT22;3967;48.702;9.326;2023-05-07T06:07:25;15.80;97.30
7844;DHT22;3967;48.702;9.326;2023-05-07T06:09:51;16.10;97.30
7844;DHT22;3967;48.702;9.326;2023-05-07T06:12:18;16.30;97.60
7844;DHT22;3967;48.702;9.326;2023-05-07T06:14:45;16.50;97.10
7844;DHT22;3967;48.702;9.326;2023-05-07T06:17:11;16.80;96.30
7844;DHT22;3967;48.702;9.326;2023-05-07T06:19:38;16.90;94.70
7844;DHT22;3967;48.702;9.326;2023-05-07T06:22:05;17.10;94.90
7844;DHT22;3967;48.702;9.326;2023-05-07T06:24:32;17.20;94.30
7844;DHT22;3967;48.702;9.326;2023-05-07T06:26:58;17.40;93.30
7844;DHT22;3967;48.702;9.326;2023-05-07T06:29:25;17.40;93.60
7844;DHT22;3967;48.702;9.326;2023-05-07T06:31:53;17.40;92.70
7844;DHT22;3967;48.702;9.326;2023-05-07T06:34:20;17.60;92.70
7844;DHT22;3967;48.702;9.326;2023-05-07T06:36:46;17.70;92.30
7844;DHT22;3967;48.702;9.326;2023-05-07T06:39:13;18.00;92.50
7844;DHT22;3967;48.702;9.326;2023-05-07T06:41:40;18.20;92.20
7844;DHT22;3967;48.702;9.326;2023-05-07T06:44:06;18.30;92.20
7844;DHT22;3967;48.702;9.326;2023-05-07T06:46:35;18.60;91.20
7844;DHT22;3967;48.702;9.326;2023-05-07T06:49:02;18.60;90.80
7844;DHT22;3967;48.702;9.326;2023-05-07T06:51:29;18.70;90.70
7844;DHT22;3967;48.702;9.326;2023-05-07T06:53:56;18.60;90.70
7844;DHT22;3967;48.702;9.326;2023-05-07T06:56:23;18.60;91.00
7844;DHT22;3967;48.702;9.326;2023-05-07T06:58:50;18.60;90.90
7844;DHT22;3967;48.702;9.326;2023-05-07T07:01:16;18.70;91.00
7844;DHT22;3967;48.702;9.326;2023-05-07T07:03:43;18.90;91.00
7844;DHT22;3967;48.702;9.326;2023-05-07T07:06:10;19.10;91.00
7844;DHT22;3967;48.702;9.326;2023-05-07T07:08:36;19.10;90.50
7844;DHT22;3967;48.702;9.326;2023-05-07T07:11:05;19.20;90.60
7844;DHT22;3967;48.702;9.326;2023-05-07T07:13:32;19.40;90.60
7844;DHT22;3967;48.702;9.326;2023-05-07T07:16:00;19.40;90.10
7844;DHT22;3967;48.702;9.326;2023-05-07T07:18:28;19.60;90.20
7844;DHT22;3967;48.702;9.326;2023-05-07T07:20:54;19.70;90.20
7844;DHT22;3967;48.702;9.326;2023-05-07T07:23:21;19.90;89.40
7844;DHT22;3967;48.702;9.326;2023-05-07T07:25:48;20.00;88.90
7844;DHT22;3967;48.702;9.326;2023-05-07T07:28:15;20.30;88.20
7844;DHT22;3967;48.702;9.326;2023-05-07T07:30:42;20.30;87.90
7844;DHT22;3967;48.702;9.326;2023-05-07T07:33:09;20.40;87.20
7844;DHT22;3967;48.702;9.326;2023-05-07T07:35:35;20.60;87.10
7844;DHT22;3967;48.702;9.326;2023-05-07T07:38:05;21.20;86.90
7844;DHT22;3967;48.702;9.326;2023-05-07T07:40:31;21.30;85.40
7844;DHT22;3967;48.702;9.326;2023-05-07T07:42:58;21.40;84.60
7844;DHT22;3967;48.702;9.326;2023-05-07T07:45:26;21.60;84.00
7844;DHT22;3967;48.702;9.326;2023-05-07T07:47:52;21.50;84.40
7844;DHT22;3967;48.702;9.326;2023-05-07T07:50:22;21.40;84.10
7844;DHT22;3967;48.702;9.326;2023-05-07T07:53:08;21.40;83.40
7844;DHT22;3967;48.702;9.326;2023-05-07T07:55:39;22.00;83.50
7844;DHT22;3967;48.702;9.326;2023-05-07T07:58:06;21.80;82.60
7844;DHT22;3967;48.702;9.326;2023-05-07T08:00:32;21.50;82.80
7844;DHT22;3967;48.702;9.326;2023-05-07T08:02:59;21.60;82.60
7844;DHT22;3967;48.702;9.326;2023-05-07T08:05:27;21.50;83.50
7844;DHT22;3967;48.702;9.326;2023-05-07T08:07:54;21.50;84.30
7844;DHT22;3967;48.702;9.326;2023-05-07T08:10:21;22.00;82.80
7844;DHT22;3967;48.702;9.326;2023-05-07T08:12:49;22.10;82.30
7844;DHT22;3967;48.702;9.326;2023-05-07T08:15:16;22.20;82.40
7844;DHT22;3967;48.702;9.326;2023-05-07T08:17:43;22.30;81.40
7844;DHT22;3967;48.702;9.326;2023-05-07T08:20:10;22.30;81.40
7844;DHT22;3967;48.702;9.326;2023-05-07T08:22:37;22.80;81.80
7844;DHT22;3967;48.702;9.326;2023-05-07T08:25:04;22.90;80.60
7844;DHT22;3967;48.702;9.326;2023-05-07T08:27:31;23.20;79.00
7844;DHT22;3967;48.702;9.326;2023-05-07T08:29:58;23.30;78.80
7844;DHT22;3967;48.702;9.326;2023-05-07T08:32:25;23.60;79.30
7844;DHT22;3967;48.702;9.326;2023-05-07T08:34:52;23.40;78.80
7844;DHT22;3967;48.702;9.326;2023-05-07T08:37:18;23.30;78.50
7844;DHT22;3967;48.702;9.326;2023-05-07T08:39:45;23.50;79.50
7844;DHT22;3967;48.702;9.326;2023-05-07T08:42:12;23.50;79.20
7844;DHT22;3967;48.702;9.326;2023-05-07T08:44:45;23.50;78.30
7844;DHT22;3967;48.702;9.326;2023-05-07T08:47:15;23.70;78.50
7844;DHT22;3967;48.702;9.326;2023-05-07T08:49:42;23.40;78.00
7844;DHT22;3967;48.702;9.326;2023-05-07T08:52:11;23.30;77.50
7844;DHT22;3967;48.702;9.326;2023-05-07T08:54:38;23.60;79.20
7844;DHT22;3967;48.702;9.326;2023-05-07T08:57:05;23.90;78.70
7844;DHT22;3967;48.702;9.326;2023-05-07T08:59:32;23.90;76.70
7844;DHT22;3967;48.702;9.326;2023-05-07T09:01:58;23.90;77.20
7844;DHT22;3967;48.702;9.326;2023-05-07T09:04:25;24.30;76.80
7844;DHT22;3967;48.702;9.326;2023-05-07T09:06:52;24.30;76.90
7844;DHT22;3967;48.702;9.326;2023-05-07T09:09:18;24.30;75.80
7844;DHT22;3967;48.702;9.326;2023-05-07T09:11:45;24.30;76.20
7844;DHT22;3967;48.702;9.326;2023-05-07T09:14:12;24.50;76.30
7844;DHT22;3967;48.702;9.326;2023-05-07T09:16:39;24.70;77.40
7844;DHT22;3967;48.702;9.326;2023-05-07T09:19:06;24.80;75.70
7844;DHT22;3967;48.702;9.326;2023-05-07T09:21:33;24.50;72.10
7844;DHT22;3967;48.702;9.326;2023-05-07T09:24:00;24.20;73.10
7844;DHT22;3967;48.702;9.326;2023-05-07T09:26:26;24.00;74.70
7844;DHT22;3967;48.702;9.326;2023-05-07T09:28:54;24.40;75.60
7844;DHT22;3967;48.702;9.326;2023-05-07T09:31:21;24.40;73.10
7844;DHT22;3967;48.702;9.326;2023-05-07T09:33:50;24.00;73.50
7844;DHT22;3967;48.702;9.326;2023-05-07T09:36:18;24.20;73.00
7844;DHT22;3967;48.702;9.326;2023-05-07T09:38:45;24.40;74.10
7844;DHT22;3967;48.702;9.326;2023-05-07T09:41:13;24.60;73.10
7844;DHT22;3967;48.702;9.326;2023-05-07T09:43:40;24.70;74.20
7844;DHT22;3967;48.702;9.326;2023-05-07T09:46:14;25.00;75.60
7844;DHT22;3967;48.702;9.326;2023-05-07T09:48:44;25.30;73.80
7844;DHT22;3967;48.702;9.326;2023-05-07T09:53:48;25.10;72.70
7844;DHT22;3967;48.702;9.326;2023-05-07T09:56:17;24.90;72.00
7844;DHT22;3967;48.702;9.326;2023-05-07T09:58:48;25.00;72.80
7844;DHT22;3967;48.702;9.326;2023-05-07T10:01:17;24.90;73.10
7844;DHT22;3967;48.702;9.326;2023-05-07T10:03:45;25.10;72.70
7844;DHT22;3967;48.702;9.326;2023-05-07T10:06:13;25.20;71.60
7844;DHT22;3967;48.702;9.326;2023-05-07T10:08:42;25.60;71.00
7844;DHT22;3967;48.702;9.326;2023-05-07T10:11:09;25.80;71.50
7844;DHT22;3967;48.702;9.326;2023-05-07T10:13:37;25.60;71.10
7844;DHT22;3967;48.702;9.326;2023-05-07T10:16:04;25.60;71.10
7844;DHT22;3967;48.702;9.326;2023-05-07T10:18:32;25.50;69.50
7844;DHT22;3967;48.702;9.326;2023-05-07T10:21:08;25.40;68.60
7844;DHT22;3967;48.702;9.326;2023-05-07T10:23:38;25.30;68.70
7844;DHT22;3967;48.702;9.326;2023-05-07T10:26:07;25.40;68.80
7844;DHT22;3967;48.702;9.326;2023-05-07T10:28:38;25.60;68.30
7844;DHT22;3967;48.702;9.326;2023-05-07T10:31:40;25.60;67.30
7844;DHT22;3967;48.702;9.326;2023-05-07T10:34:12;25.60;66.70
7844;DHT22;3967;48.702;9.326;2023-05-07T10:36:40;26.00;68.70
7844;DHT22;3967;48.702;9.326;2023-05-07T10:39:07;26.20;67.30
7844;DHT22;3967;48.702;9.326;2023-05-07T10:41:33;25.90;68.00
7844;DHT22;3967;48.702;9.326;2023-05-07T10:44:00;26.00;68.20
7844;DHT22;3967;48.702;9.326;2023-05-07T10:46:28;24.90;68.60
7844;DHT22;3967;48.702;9.326;2023-05-07T10:51:30;25.60;67.80
7844;DHT22;3967;48.702;9.326;2023-05-07T11:01:59;25.60;64.70
7844;DHT22;3967;48.702;9.326;2023-05-07T11:04:26;25.50;63.60
7844;DHT22;3967;48.702;9.326;2023-05-07T11:15:07;25.70;65.30
7844;DHT22;3967;48.702;9.326;2023-05-07T11:26:11;26.00;64.70
7844;DHT22;3967;48.702;9.326;2023-05-07T11:28:39;25.90;64.10
7844;DHT22;3967;48.702;9.326;2023-05-07T11:31:07;25.90;63.10
7844;DHT22;3967;48.702;9.326;2023-05-07T11:33:34;26.00;63.50
7844;DHT22;3967;48.702;9.326;2023-05-07T11:36:05;25.90;62.60
7844;DHT22;3967;48.702;9.326;2023-05-07T11:38:36;26.00;61.80
7844;DHT22;3967;48.702;9.326;2023-05-07T11:41:03;25.90;60.90
7844;DHT22;3967;48.702;9.326;2023-05-07T11:43:32;25.90;60.20
7844;DHT22;3967;48.702;9.326;2023-05-07T11:46:11;26.10;60.10
7844;DHT22;3967;48.702;9.326;2023-05-07T11:48:38;25.90;60.20
7844;DHT22;3967;48.702;9.326;2023-05-07T11:51:06;26.00;60.60
7844;DHT22;3967;48.702;9.326;2023-05-07T11:53:39;26.00;61.10
7844;DHT22;3967;48.702;9.326;2023-05-07T11:56:08;26.40;59.00
7844;DHT22;3967;48.702;9.326;2023-05-07T11:58:35;26.40;59.20
7844;DHT22;3967;48.702;9.326;2023-05-07T12:01:02;26.00;58.10
7844;DHT22;3967;48.702;9.326;2023-05-07T12:03:29;26.20;58.40
7844;DHT22;3967;48.702;9.326;2023-05-07T12:06:01;26.40;56.30
7844;DHT22;3967;48.702;9.326;2023-05-07T12:08:28;26.40;57.10
7844;DHT22;3967;48.702;9.326;2023-05-07T12:10:54;26.20;57.30
7844;DHT22;3967;48.702;9.326;2023-05-07T12:13:23;26.20;59.00
7844;DHT22;3967;48.702;9.326;2023-05-07T12:15:55;26.20;58.70
7844;DHT22;3967;48.702;9.326;2023-05-07T12:18:22;26.10;59.40
7844;DHT22;3967;48.702;9.326;2023-05-07T12:20:50;25.80;59.40
7844;DHT22;3967;48.702;9.326;2023-05-07T12:23:17;25.60;60.10
7844;DHT22;3967;48.702;9.326;2023-05-07T12:25:45;25.70;60.50
7844;DHT22;3967;48.702;9.326;2023-05-07T12:28:16;25.60;60.00
7844;DHT22;3967;48.702;9.326;2023-05-07T12:30:44;25.60;61.10
7844;DHT22;3967;48.702;9.326;2023-05-07T12:33:11;25.10;63.60
7844;DHT22;3967;48.702;9.326;2023-05-07T12:35:42;24.70;66.60
7844;DHT22;3967;48.702;9.326;2023-05-07T12:38:12;24.60;68.70
7844;DHT22;3967;48.702;9.326;2023-05-07T12:40:44;24.00;70.40
7844;DHT22;3967;48.702;9.326;2023-05-07T12:43:24;23.70;71.20
7844;DHT22;3967;48.702;9.326;2023-05-07T12:45:54;23.70;71.50
7844;DHT22;3967;48.702;9.326;2023-05-07T12:48:21;23.60;72.70
7844;DHT22;3967;48.702;9.326;2023-05-07T12:50:49;23.80;72.00
7844;DHT22;3967;48.702;9.326;2023-05-07T12:53:16;23.80;70.80
7844;DHT22;3967;48.702;9.326;2023-05-07T12:55:48;23.40;69.80
7844;DHT22;3967;48.702;9.326;2023-05-07T13:00:48;23.30;70.60
7844;DHT22;3967;48.702;9.326;2023-05-07T13:03:33;23.50;70.10
7844;DHT22;3967;48.702;9.326;2023-05-07T13:06:01;23.70;69.90
7844;DHT22;3967;48.702;9.326;2023-05-07T13:08:35;23.60;71.10
7844;DHT22;3967;48.702;9.326;2023-05-07T13:11:06;23.60;71.10
7844;DHT22;3967;48.702;9.326;2023-05-07T13:13:40;23.60;71.00
7844;DHT22;3967;48.702;9.326;2023-05-07T13:16:12;23.00;71.70
7844;DHT22;3967;48.702;9.326;2023-05-07T13:18:40;22.60;73.50
7844;DHT22;3967;48.702;9.326;2023-05-07T13:21:12;22.50;74.50
7844;DHT22;3967;48.702;9.326;2023-05-07T13:23:40;22.10;75.80
7844;DHT22;3967;48.702;9.326;2023-05-07T13:26:06;21.70;77.50
7844;DHT22;3967;48.702;9.326;2023-05-07T13:28:53;21.50;79.70
7844;DHT22;3967;48.702;9.326;2023-05-07T13:31:19;21.40;80.80
7844;DHT22;3967;48.702;9.326;2023-05-07T13:33:47;21.00;83.70
7844;DHT22;3967;48.702;9.326;2023-05-07T13:36:14;20.70;85.10
7844;DHT22;3967;48.702;9.326;2023-05-07T13:38:41;20.50;86.90
7844;DHT22;3967;48.702;9.326;2023-05-07T13:41:08;20.40;87.00
7844;DHT22;3967;48.702;9.326;2023-05-07T13:43:35;20.50;86.90
7844;DHT22;3967;48.702;9.326;2023-05-07T13:46:02;20.70;86.80
7844;DHT22;3967;48.702;9.326;2023-05-07T13:48:28;20.70;87.00
7844;DHT22;3967;48.702;9.326;2023-05-07T13:50:56;20.70;88.50
7844;DHT22;3967;48.702;9.326;2023-05-07T13:53:22;20.60;88.00
7844;DHT22;3967;48.702;9.326;2023-05-07T13:55:49;20.80;89.50
7844;DHT22;3967;48.702;9.326;2023-05-07T13:58:16;20.80;90.40
7844;DHT22;3967;48.702;9.326;2023-05-07T14:00:43;20.80;91.20
7844;DHT22;3967;48.702;9.326;2023-05-07T14:03:10;20.50;91.20
7844;DHT22;3967;48.702;9.326;2023-05-07T14:05:37;20.20;92.30
7844;DHT22;3967;48.702;9.326;2023-05-07T14:08:03;19.60;94.80
7844;DHT22;3967;48.702;9.326;2023-05-07T14:10:31;19.10;96.50
7844;DHT22;3967;48.702;9.326;2023-05-07T14:13:01;19.00;96.60
7844;DHT22;3967;48.702;9.326;2023-05-07T14:15:27;18.90;97.30
7844;DHT22;3967;48.702;9.326;2023-05-07T14:17:54;18.60;98.40
7844;DHT22;3967;48.702;9.326;2023-05-07T14:20:21;18.50;99.10
7844;DHT22;3967;48.702;9.326;2023-05-07T14:22:48;18.50;99.90
7844;DHT22;3967;48.702;9.326;2023-05-07T14:25:15;18.40;99.90
7844;DHT22;3967;48.702;9.326;2023-05-07T14:27:42;18.10;99.90
7844;DHT22;3967;48.702;9.326;2023-05-07T14:30:09;18.10;99.90
7844;DHT22;3967;48.702;9.326;2023-05-07T14:32:36;18.30;99.90
7844;DHT22;3967;48.702;9.326;2023-05-07T14:35:03;18.10;99.90
7844;DHT22;3967;48.702;9.326;2023-05-07T14:37:30;18.20;99.90
7844;DHT22;3967;48.702;9.326;2023-05-07T14:39:56;18.30;99.90
7844;DHT22;3967;48.702;9.326;2023-05-07T14:42:23;18.30;99.90
7844;DHT22;3967;48.702;9.326;2023-05-07T14:44:50;18.40;99.90
7844;DHT22;3967;48.702;9.326;2023-05-07T14:47:17;18.40;99.90
7844;DHT22;3967;48.702;9.326;2023-05-07T14:49:45;18.50;99.90
7844;DHT22;3967;48.702;9.326;2023-05-07T14:52:12;18.50;99.90
7844;DHT22;3967;48.702;9.326;2023-05-07T14:54:39;18.60;99.90
7844;DHT22;3967;48.702;9.326;2023-05-07T14:57:07;18.50;99.90
7844;DHT22;3967;48.702;9.326;2023-05-07T14:59:34;18.60;99.90
7844;DHT22;3967;48.702;9.326;2023-05-07T15:02:01;18.80;99.90
7844;DHT22;3967;48.702;9.326;2023-05-07T15:04:32;18.80;99.90
7844;DHT22;3967;48.702;9.326;2023-05-07T15:06:59;18.90;99.90
7844;DHT22;3967;48.702;9.326;2023-05-07T15:09:26;18.90;99.90
7844;DHT22;3967;48.702;9.326;2023-05-07T15:11:53;19.00;99.90
7844;DHT22;3967;48.702;9.326;2023-05-07T15:14:20;19.00;99.90
7844;DHT22;3967;48.702;9.326;2023-05-07T15:16:48;18.90;99.90
7844;DHT22;3967;48.702;9.326;2023-05-07T15:19:15;18.30;99.90
7844;DHT22;3967;48.702;9.326;2023-05-07T15:21:43;18.50;99.90
7844;DHT22;3967;48.702;9.326;2023-05-07T15:24:10;18.60;99.90
7844;DHT22;3967;48.702;9.326;2023-05-07T15:26:36;18.70;99.90
7844;DHT22;3967;48.702;9.326;2023-05-07T15:29:03;18.90;99.90
7844;DHT22;3967;48.702;9.326;2023-05-07T15:31:34;18.60;99.90
7844;DHT22;3967;48.702;9.326;2023-05-07T15:34:01;18.10;99.90
7844;DHT22;3967;48.702;9.326;2023-05-07T15:36:28;18.00;99.90
7844;DHT22;3967;48.702;9.326;2023-05-07T15:38:55;18.20;99.90
7844;DHT22;3967;48.702;9.326;2023-05-07T15:41:22;18.20;99.90
7844;DHT22;3967;48.702;9.326;2023-05-07T15:43:50;18.20;99.90
7844;DHT22;3967;48.702;9.326;2023-05-07T15:46:22;18.00;99.90
7844;DHT22;3967;48.702;9.326;2023-05-07T15:48:52;17.80;99.90
7844;DHT22;3967;48.702;9.326;2023-05-07T15:51:19;17.80;99.90
7844;DHT22;3967;48.702;9.326;2023-05-07T15:53:46;17.90;99.90
7844;DHT22;3967;48.702;9.326;2023-05-07T15:56:13;18.00;99.90
7844;DHT22;3967;48.702;9.326;2023-05-07T15:58:40;18.30;99.90
7844;DHT22;3967;48.702;9.326;2023-05-07T16:01:07;18.40;99.90
7844;DHT22;3967;48.702;9.326;2023-05-07T16:03:34;17.90;99.90
7844;DHT22;3967;48.702;9.326;2023-05-07T16:06:02;17.90;99.90
7844;DHT22;3967;48.702;9.326;2023-05-07T16:08:30;17.70;99.90
7844;DHT22;3967;48.702;9.326;2023-05-07T16:10:57;17.60;99.90
7844;DHT22;3967;48.702;9.326;2023-05-07T16:13:23;17.70;99.90
7844;DHT22;3967;48.702;9.326;2023-05-07T16:15:57;17.90;99.90
7844;DHT22;3967;48.702;9.326;2023-05-07T16:18:25;18.00;99.90
7844;DHT22;3967;48.702;9.326;2023-05-07T16:20:52;18.00;99.90
7844;DHT22;3967;48.702;9.326;2023-05-07T16:23:20;18.10;99.90
7844;DHT22;3967;48.702;9.326;2023-05-07T16:25:48;18.00;99.90
7844;DHT22;3967;48.702;9.326;2023-05-07T16:28:15;17.90;99.90
7844;DHT22;3967;48.702;9.326;2023-05-07T16:30:42;18.00;99.90
7844;DHT22;3967;48.702;9.326;2023-05-07T16:33:09;17.80;99.90
7844;DHT22;3967;48.702;9.326;2023-05-07T16:35:36;17.70;99.90
7844;DHT22;3967;48.702;9.326;2023-05-07T16:38:02;17.70;99.90